createdAt,value
2022-09-23T00:00:35.817Z,1.70
2022-09-23T00:01:35.879Z,1.90
2022-09-23T00:02:36.234Z,1.90
2022-09-23T00:03:35.776Z,1.90
2022-09-23T00:04:35.763Z,1.70
2022-09-23T00:05:35.755Z,2.40
2022-09-23T00:06:35.744Z,2.20
2022-09-23T00:07:36.143Z,2.00
2022-09-23T00:08:35.717Z,2.00
2022-09-23T00:09:35.692Z,1.90
2022-09-23T00:10:35.682Z,2.20
2022-09-23T00:11:35.679Z,2.10
2022-09-23T00:12:36.091Z,1.90
2022-09-23T00:13:35.644Z,2.10
2022-09-23T00:14:35.646Z,2.00
2022-09-23T00:15:35.620Z,2.00
2022-09-23T00:16:35.677Z,2.10
2022-09-23T00:17:35.961Z,1.70
2022-09-23T00:18:35.589Z,2.00
2022-09-23T00:19:35.579Z,2.00
2022-09-23T00:20:35.560Z,1.90
2022-09-23T00:21:35.548Z,2.20
2022-09-23T00:22:35.885Z,1.70
2022-09-23T00:23:35.527Z,2.00
2022-09-23T00:24:35.555Z,1.80
2022-09-23T00:25:35.494Z,2.20
2022-09-23T00:26:35.488Z,2.00
2022-09-23T00:27:35.887Z,2.10
2022-09-23T00:28:35.464Z,2.10
2022-09-23T00:29:35.448Z,1.90
2022-09-23T00:30:35.511Z,2.70
2022-09-23T00:31:35.426Z,2.10
2022-09-23T00:32:35.837Z,2.40
2022-09-23T00:33:35.397Z,2.10
2022-09-23T00:34:35.383Z,3.30
2022-09-23T00:35:35.372Z,1.90
2022-09-23T00:36:35.372Z,2.50
2022-09-23T00:37:35.771Z,2.30
2022-09-23T00:38:35.338Z,2.50
2022-09-23T00:39:35.312Z,2.00
2022-09-23T00:40:35.328Z,1.90
2022-09-23T00:41:35.291Z,2.60
2022-09-23T00:42:35.663Z,5.60
2022-09-23T00:43:35.263Z,3.50
2022-09-23T00:44:35.254Z,5.20
2022-09-23T00:45:35.249Z,5.00
2022-09-23T00:46:35.345Z,3.90
2022-09-23T00:47:35.644Z,5.50
2022-09-23T00:48:35.201Z,2.90
2022-09-23T00:49:35.192Z,5.90
2022-09-23T00:50:35.171Z,5.70
2022-09-23T00:51:35.169Z,5.20
2022-09-23T00:52:35.582Z,4.50
2022-09-23T00:53:35.139Z,4.30
2022-09-23T00:54:35.126Z,4.10
2022-09-23T00:55:35.124Z,6.40
2022-09-23T00:56:35.099Z,6.80
2022-09-23T00:57:35.489Z,5.90
2022-09-23T00:58:35.070Z,4.10
2022-09-23T00:59:35.058Z,6.00
2022-09-23T01:00:35.048Z,7.30
2022-09-23T01:01:35.107Z,6.20
2022-09-23T01:02:35.396Z,7.80
2022-09-23T01:03:35.017Z,8.30
2022-09-23T01:04:34.997Z,7.50
2022-09-23T01:05:34.997Z,8.10
2022-09-23T01:06:34.978Z,13.00
2022-09-23T01:07:35.385Z,8.60
2022-09-23T01:08:34.958Z,14.60
2022-09-23T01:09:34.944Z,17.50
2022-09-23T01:10:34.914Z,19.20
2022-09-23T01:11:34.920Z,26.70
2022-09-23T01:12:35.313Z,18.80
2022-09-23T01:13:34.883Z,5.80
2022-09-23T01:14:34.871Z,2.30
2022-09-23T01:15:34.863Z,2.10
2022-09-23T01:16:34.895Z,1.70
2022-09-23T01:17:35.192Z,2.30
2022-09-23T01:18:34.812Z,1.90
2022-09-23T01:19:34.814Z,2.10
2022-09-23T01:20:34.793Z,2.20
2022-09-23T01:21:34.786Z,2.90
2022-09-23T01:22:34.781Z,2.10
2022-09-23T01:23:35.165Z,1.80
2022-09-23T01:24:34.742Z,2.00
2022-09-23T01:25:34.742Z,1.90
2022-09-23T01:26:34.721Z,1.90
2022-09-23T01:27:34.729Z,1.90
2022-09-23T01:28:35.047Z,1.80
2022-09-23T01:29:34.689Z,2.20
2022-09-23T01:30:34.693Z,3.60
2022-09-23T01:31:34.661Z,6.80
2022-09-23T01:32:34.646Z,6.70
2022-09-23T01:33:34.975Z,3.20
2022-09-23T01:34:34.628Z,3.70
2022-09-23T01:35:34.636Z,3.40
2022-09-23T01:36:34.597Z,4.90
2022-09-23T01:37:34.584Z,6.80
2022-09-23T01:38:34.996Z,6.30
2022-09-23T01:39:34.566Z,7.30
2022-09-23T01:40:34.611Z,9.00
2022-09-23T01:41:34.536Z,4.30
2022-09-23T01:42:34.514Z,4.20
2022-09-23T01:43:34.939Z,3.70
2022-09-23T01:44:34.494Z,4.10
2022-09-23T01:45:34.479Z,4.70
2022-09-23T01:46:34.465Z,5.90
2022-09-23T01:47:42.477Z,6.70
2022-09-23T01:48:41.835Z,10.10
2022-09-23T01:49:41.433Z,12.80
2022-09-23T01:50:34.581Z,8.10
2022-09-23T01:51:34.402Z,16.20
2022-09-23T01:52:34.382Z,11.80
2022-09-23T01:53:34.828Z,24.90
2022-09-23T01:54:34.371Z,18.30
2022-09-23T01:55:34.362Z,13.20
2022-09-23T01:56:34.341Z,22.90
2022-09-23T01:57:34.346Z,17.90
2022-09-23T01:58:34.740Z,19.30
2022-09-23T01:59:34.307Z,11.00
2022-09-23T02:00:34.292Z,6.30
2022-09-23T02:01:34.373Z,4.70
2022-09-23T02:02:34.321Z,2.80
2022-09-23T02:03:34.619Z,2.70
2022-09-23T02:04:34.239Z,2.30
2022-09-23T02:05:34.237Z,2.40
2022-09-23T02:06:34.218Z,2.90
2022-09-23T02:07:34.208Z,2.10
2022-09-23T02:08:34.637Z,3.90
2022-09-23T02:09:34.177Z,3.70
2022-09-23T02:10:34.165Z,9.40
2022-09-23T02:11:34.150Z,8.20
2022-09-23T02:12:34.145Z,6.10
2022-09-23T02:13:34.538Z,5.60
2022-09-23T02:14:34.114Z,4.10
2022-09-23T02:15:34.101Z,3.60
2022-09-23T02:16:34.134Z,5.80
2022-09-23T02:17:34.080Z,9.30
2022-09-23T02:18:34.423Z,6.70
2022-09-23T02:19:34.048Z,10.00
2022-09-23T02:20:34.033Z,9.40
2022-09-23T02:21:34.027Z,9.30
2022-09-23T02:22:34.012Z,14.40
2022-09-23T02:23:34.332Z,13.40
2022-09-23T02:24:33.982Z,9.70
2022-09-23T02:25:33.979Z,6.80
2022-09-23T02:26:33.961Z,10.00
2022-09-23T02:27:33.943Z,7.00
2022-09-23T02:28:34.354Z,6.00
2022-09-23T02:29:33.922Z,5.80
2022-09-23T02:30:33.937Z,6.00
2022-09-23T02:31:33.943Z,6.00
2022-09-23T02:32:33.886Z,4.50
2022-09-23T02:33:34.285Z,6.00
2022-09-23T02:34:33.880Z,7.40
2022-09-23T02:35:33.849Z,9.90
2022-09-23T02:36:33.835Z,11.50
2022-09-23T02:37:33.828Z,7.60
2022-09-23T02:38:34.169Z,7.70
2022-09-23T02:39:33.792Z,11.10
2022-09-23T02:40:33.805Z,10.70
2022-09-23T02:41:33.767Z,3.50
2022-09-23T02:42:33.758Z,9.10
2022-09-23T02:43:34.179Z,6.60
2022-09-23T02:44:33.728Z,6.20
2022-09-23T02:45:33.826Z,7.30
2022-09-23T02:46:33.697Z,7.70
2022-09-23T02:47:33.697Z,6.10
2022-09-23T02:48:34.110Z,2.10
2022-09-23T02:49:33.676Z,2.00
2022-09-23T02:50:33.754Z,2.40
2022-09-23T02:51:33.645Z,2.00
2022-09-23T02:52:33.618Z,2.10
2022-09-23T02:53:33.973Z,2.20
2022-09-23T02:54:33.608Z,3.90
2022-09-23T02:55:33.586Z,3.00
2022-09-23T02:56:33.579Z,5.90
2022-09-23T02:57:33.563Z,3.90
2022-09-23T02:58:33.978Z,3.50
2022-09-23T02:59:33.539Z,2.10
2022-09-23T03:00:33.514Z,1.60
2022-09-23T03:01:33.544Z,2.10
2022-09-23T03:02:33.555Z,2.00
2022-09-23T03:03:33.920Z,1.80
2022-09-23T03:04:33.471Z,1.90
2022-09-23T03:05:33.470Z,2.00
2022-09-23T03:06:33.450Z,1.70
2022-09-23T03:07:33.440Z,1.80
2022-09-23T03:08:33.787Z,2.00
2022-09-23T03:09:33.417Z,2.00
2022-09-23T03:10:33.499Z,1.90
2022-09-23T03:11:33.400Z,1.80
2022-09-23T03:12:33.368Z,2.20
2022-09-23T03:13:33.778Z,2.40
2022-09-23T03:14:33.343Z,1.70
2022-09-23T03:15:33.341Z,1.80
2022-09-23T03:16:33.358Z,1.90
2022-09-23T03:17:33.308Z,1.80
2022-09-23T03:18:33.291Z,2.00
2022-09-23T03:19:33.706Z,2.10
2022-09-23T03:20:33.257Z,2.30
2022-09-23T03:21:33.259Z,2.30
2022-09-23T03:22:33.235Z,2.60
2022-09-23T03:23:33.225Z,1.40
2022-09-23T03:24:33.581Z,1.70
2022-09-23T03:25:33.223Z,1.40
2022-09-23T03:26:33.185Z,1.50
2022-09-23T03:27:33.175Z,1.70
2022-09-23T03:28:33.173Z,1.70
2022-09-23T03:29:33.503Z,1.80
2022-09-23T03:30:33.132Z,1.80
2022-09-23T03:31:33.188Z,2.00
2022-09-23T03:32:33.122Z,1.60
2022-09-23T03:33:33.104Z,1.70
2022-09-23T03:34:33.513Z,1.70
2022-09-23T03:35:33.078Z,2.10
2022-09-23T03:36:33.062Z,1.90
2022-09-23T03:37:33.050Z,1.80
2022-09-23T03:38:33.031Z,1.70
2022-09-23T03:39:33.390Z,1.60
2022-09-23T03:40:33.039Z,1.90
2022-09-23T03:41:33.014Z,1.70
2022-09-23T03:42:32.979Z,1.70
2022-09-23T03:43:36.570Z,1.60
2022-09-23T03:44:34.400Z,2.00
2022-09-23T03:45:33.022Z,1.70
2022-09-23T03:46:32.928Z,1.90
2022-09-23T03:47:32.915Z,1.40
2022-09-23T03:48:32.908Z,1.50
2022-09-23T03:49:33.317Z,1.60
2022-09-23T03:50:32.882Z,1.70
2022-09-23T03:51:32.867Z,1.80
2022-09-23T03:52:32.846Z,1.80
2022-09-23T03:53:32.842Z,1.90
2022-09-23T03:54:33.187Z,1.60
2022-09-23T03:55:32.813Z,2.00
2022-09-23T03:56:32.804Z,1.80
2022-09-23T03:57:32.795Z,1.80
2022-09-23T03:58:32.772Z,1.80
2022-09-23T03:59:33.186Z,1.80
2022-09-23T04:00:35.495Z,1.60
2022-09-23T04:01:32.975Z,1.90
2022-09-23T04:02:32.746Z,1.70
2022-09-23T04:03:32.724Z,1.70
2022-09-23T04:04:33.012Z,1.90
2022-09-23T04:05:32.696Z,1.90
2022-09-23T04:06:32.672Z,2.50
2022-09-23T04:07:32.663Z,1.90
2022-09-23T04:08:32.661Z,2.00
2022-09-23T04:09:33.078Z,1.90
2022-09-23T04:10:32.620Z,1.70
2022-09-23T04:11:32.611Z,2.00
2022-09-23T04:12:32.647Z,2.00
2022-09-23T04:13:32.580Z,1.90
2022-09-23T04:14:32.933Z,2.00
2022-09-23T04:15:32.579Z,1.60
2022-09-23T04:16:32.586Z,1.90
2022-09-23T04:17:32.528Z,1.60
2022-09-23T04:18:32.521Z,1.70
2022-09-23T04:19:32.886Z,1.90
2022-09-23T04:20:32.496Z,1.90
2022-09-23T04:21:32.483Z,1.90
2022-09-23T04:22:32.459Z,1.70
2022-09-23T04:23:39.472Z,1.70
2022-09-23T04:24:32.815Z,1.80
2022-09-23T04:25:32.422Z,2.00
2022-09-23T04:26:32.403Z,1.80
2022-09-23T04:27:36.888Z,1.80
2022-09-23T04:28:33.396Z,1.80
2022-09-23T04:29:39.804Z,2.10
2022-09-23T04:30:32.356Z,1.80
2022-09-23T04:31:32.417Z,1.80
2022-09-23T04:32:32.334Z,1.90
2022-09-23T04:33:32.331Z,1.60
2022-09-23T04:34:32.683Z,1.70
2022-09-23T04:35:34.043Z,1.70
2022-09-23T04:36:32.282Z,1.90
2022-09-23T04:37:32.271Z,1.70
2022-09-23T04:38:32.256Z,2.00
2022-09-23T04:39:32.599Z,1.80
2022-09-23T04:40:32.336Z,2.10
2022-09-23T04:41:32.229Z,1.70
2022-09-23T04:42:32.211Z,1.90
2022-09-23T04:43:32.211Z,2.00
2022-09-23T04:44:32.632Z,2.00
2022-09-23T04:45:32.180Z,1.80
2022-09-23T04:46:32.200Z,1.60
2022-09-23T04:47:32.152Z,1.60
2022-09-23T04:48:32.119Z,1.80
2022-09-23T04:49:32.146Z,2.00
2022-09-23T04:50:32.106Z,2.00
2022-09-23T04:51:32.092Z,1.60
2022-09-23T04:52:32.096Z,1.80
2022-09-23T04:53:32.067Z,1.70
2022-09-23T04:54:32.378Z,1.90
2022-09-23T04:55:32.047Z,2.00
2022-09-23T04:56:32.027Z,1.60
2022-09-23T04:57:32.016Z,1.80
2022-09-23T04:58:32.002Z,1.80
2022-09-23T04:59:32.018Z,1.90
2022-09-23T05:00:32.020Z,1.90
2022-09-23T05:01:32.073Z,1.60
2022-09-23T05:02:32.088Z,1.50
2022-09-23T05:03:32.095Z,1.60
2022-09-23T05:04:32.305Z,1.90
2022-09-23T05:05:31.917Z,1.80
2022-09-23T05:06:31.905Z,1.80
2022-09-23T05:07:31.894Z,1.80
2022-09-23T05:08:31.874Z,1.60
2022-09-23T05:09:32.169Z,1.80
2022-09-23T05:10:31.833Z,2.00
2022-09-23T05:11:31.830Z,2.00
2022-09-23T05:12:31.832Z,2.00
2022-09-23T05:13:31.834Z,1.70
2022-09-23T05:14:32.123Z,1.80
2022-09-23T05:15:31.791Z,2.10
2022-09-23T05:16:31.846Z,2.00
2022-09-23T05:17:31.755Z,2.40
2022-09-23T05:18:31.744Z,1.90
2022-09-23T05:19:32.063Z,2.10
2022-09-23T05:20:31.715Z,2.60
2022-09-23T05:21:31.730Z,2.30
2022-09-23T05:22:31.699Z,3.30
2022-09-23T05:23:31.693Z,4.20
2022-09-23T05:24:31.718Z,2.80
2022-09-23T05:25:35.113Z,4.00
2022-09-23T05:26:32.639Z,3.90
2022-09-23T05:27:31.634Z,2.70
2022-09-23T05:28:31.627Z,1.80
2022-09-23T05:29:31.918Z,1.90
2022-09-23T05:30:31.587Z,1.70
2022-09-23T05:31:31.608Z,1.70
2022-09-23T05:32:31.563Z,1.90
2022-09-23T05:33:31.556Z,1.80
2022-09-23T05:34:31.976Z,1.80
2022-09-23T05:35:31.532Z,2.00
2022-09-23T05:36:35.562Z,1.90
2022-09-23T05:37:32.515Z,2.00
2022-09-23T05:38:31.488Z,2.30
2022-09-23T05:39:31.791Z,1.90
2022-09-23T05:40:31.517Z,1.90
2022-09-23T05:41:31.441Z,1.90
2022-09-23T05:42:31.446Z,1.80
2022-09-23T05:43:31.428Z,2.00
2022-09-23T05:44:31.442Z,2.00
2022-09-23T05:45:31.402Z,2.00
2022-09-23T05:46:31.458Z,1.70
2022-09-23T05:47:31.371Z,1.90
2022-09-23T05:48:31.360Z,2.00
2022-09-23T05:49:55.248Z,2.20
2022-09-23T05:50:32.343Z,1.60
2022-09-23T05:51:31.721Z,2.00
2022-09-23T05:52:31.300Z,2.10
2022-09-23T05:53:31.304Z,1.90
2022-09-23T05:54:31.737Z,1.90
2022-09-23T05:55:31.267Z,2.00
2022-09-23T05:56:31.259Z,1.90
2022-09-23T05:57:31.241Z,1.80
2022-09-23T05:58:31.239Z,2.00
2022-09-23T05:59:31.640Z,2.00
2022-09-23T06:00:31.210Z,2.00
2022-09-23T06:01:31.291Z,2.00
2022-09-23T06:02:31.275Z,2.20
2022-09-23T06:03:31.172Z,1.80
2022-09-23T06:04:31.507Z,1.90
2022-09-23T06:05:31.147Z,2.00
2022-09-23T06:06:31.135Z,2.30
2022-09-23T06:07:31.115Z,1.90
2022-09-23T06:08:31.109Z,1.80
2022-09-23T06:09:36.153Z,1.80
2022-09-23T06:10:32.087Z,1.70
2022-09-23T06:11:31.068Z,2.00
2022-09-23T06:12:31.054Z,2.10
2022-09-23T06:13:31.045Z,2.00
2022-09-23T06:14:31.375Z,2.10
2022-09-23T06:15:31.021Z,2.00
2022-09-23T06:16:31.062Z,2.00
2022-09-23T06:17:31.001Z,1.90
2022-09-23T06:18:30.984Z,1.90
2022-09-23T06:19:31.355Z,2.10
2022-09-23T06:20:30.954Z,2.10
2022-09-23T06:21:30.939Z,1.80
2022-09-23T06:22:30.952Z,1.90
2022-09-23T06:23:30.913Z,2.00
2022-09-23T06:24:31.838Z,1.80
2022-09-23T06:25:30.890Z,1.90
2022-09-23T06:26:30.880Z,2.30
2022-09-23T06:27:30.872Z,1.80
2022-09-23T06:28:30.853Z,1.80
2022-09-23T06:29:31.218Z,1.80
2022-09-23T06:30:30.827Z,1.80
2022-09-23T06:31:30.906Z,1.70
2022-09-23T06:32:30.808Z,2.00
2022-09-23T06:33:36.058Z,2.00
2022-09-23T06:34:37.309Z,1.80
2022-09-23T06:35:31.758Z,2.10
2022-09-23T06:36:41.429Z,1.70
2022-09-23T06:37:31.728Z,1.90
2022-09-23T06:38:30.727Z,2.00
2022-09-23T06:39:30.714Z,1.80
2022-09-23T06:40:31.072Z,1.60
2022-09-23T06:41:30.697Z,2.10
2022-09-23T06:42:30.680Z,1.70
2022-09-23T06:43:30.654Z,1.80
2022-09-23T06:44:30.645Z,1.80
2022-09-23T06:45:30.888Z,2.00
2022-09-23T06:46:30.698Z,1.80
2022-09-23T06:47:30.624Z,2.00
2022-09-23T06:48:30.593Z,2.20
2022-09-23T06:49:30.574Z,2.00
2022-09-23T06:50:31.007Z,1.90
2022-09-23T06:51:30.553Z,1.80
2022-09-23T06:52:30.535Z,1.80
2022-09-23T06:53:30.587Z,1.90
2022-09-23T06:54:30.522Z,2.00
2022-09-23T06:55:31.075Z,1.60
2022-09-23T06:56:33.628Z,1.70
2022-09-23T06:58:40.645Z,1.80
2022-09-23T06:59:47.622Z,1.60
2022-09-23T07:00:48.038Z,1.70
2022-09-23T07:01:47.734Z,1.60
2022-09-23T07:02:47.648Z,1.80
2022-09-23T07:03:47.587Z,1.70
2022-09-23T07:04:40.558Z,1.80
2022-09-23T07:05:40.904Z,2.00
2022-09-23T07:06:40.532Z,2.00
2022-09-23T07:07:40.531Z,1.90
2022-09-23T07:08:40.518Z,1.60
2022-09-23T07:09:40.496Z,1.60
2022-09-23T07:10:40.909Z,1.70
2022-09-23T07:11:40.466Z,1.60
2022-09-23T07:12:40.456Z,1.60
2022-09-23T07:13:40.454Z,1.70
2022-09-23T07:14:40.425Z,1.80
2022-09-23T07:15:40.934Z,1.70
2022-09-23T07:16:40.405Z,1.60
2022-09-23T07:17:40.397Z,1.60
2022-09-23T07:18:40.365Z,1.60
2022-09-23T07:19:40.365Z,1.60
2022-09-23T07:20:40.715Z,1.80
2022-09-23T07:21:40.335Z,1.50
2022-09-23T07:22:40.322Z,1.70
2022-09-23T07:23:40.336Z,1.70
2022-09-23T07:24:40.306Z,2.00
2022-09-23T07:25:40.393Z,1.60
2022-09-23T07:26:45.458Z,1.60
2022-09-23T07:27:41.260Z,1.70
2022-09-23T07:28:40.266Z,1.60
2022-09-23T07:29:46.216Z,1.60
2022-09-23T07:30:51.997Z,1.60
2022-09-23T07:31:41.635Z,1.50
2022-09-23T07:32:48.169Z,1.60
2022-09-23T07:33:41.231Z,1.70
2022-09-23T07:34:40.166Z,1.60
2022-09-23T07:35:40.162Z,1.60
2022-09-23T07:36:40.701Z,1.40
2022-09-23T07:37:40.110Z,1.50
2022-09-23T07:38:44.898Z,1.50
2022-09-23T07:39:41.089Z,2.00
2022-09-23T07:40:40.441Z,1.40
2022-09-23T07:41:40.061Z,1.40
2022-09-23T07:42:40.060Z,1.40
2022-09-23T07:43:40.043Z,1.90
2022-09-23T07:44:40.022Z,1.50
2022-09-23T07:45:40.057Z,1.80
2022-09-23T07:46:40.558Z,1.70
2022-09-23T07:47:40.003Z,1.40
2022-09-23T07:48:39.991Z,1.50
2022-09-23T07:49:39.988Z,1.50
2022-09-23T07:50:40.228Z,1.80
2022-09-23T07:51:39.962Z,1.50
2022-09-23T07:52:39.929Z,1.50
2022-09-23T07:53:39.910Z,1.50
2022-09-23T07:54:39.901Z,1.70
2022-09-23T07:55:39.881Z,1.40
2022-09-23T07:56:40.293Z,1.40
2022-09-23T07:57:39.864Z,1.30
2022-09-23T07:58:39.849Z,1.30
2022-09-23T07:59:39.851Z,1.70
2022-09-23T08:00:39.846Z,1.40
2022-09-23T08:01:40.400Z,1.40
2022-09-23T08:02:39.856Z,1.60
2022-09-23T08:03:39.783Z,1.70
2022-09-23T08:04:39.771Z,1.60
2022-09-23T08:05:39.746Z,1.60
2022-09-23T08:06:40.148Z,1.50
2022-09-23T08:07:39.728Z,1.20
2022-09-23T08:08:39.706Z,1.80
2022-09-23T08:09:39.710Z,1.50
2022-09-23T08:10:40.042Z,1.70
2022-09-23T08:11:39.680Z,1.50
2022-09-23T08:12:39.662Z,1.50
2022-09-23T08:13:39.669Z,1.50
2022-09-23T08:14:39.637Z,1.30
2022-09-23T08:15:39.681Z,1.40
2022-09-23T08:16:40.049Z,1.60
2022-09-23T08:17:39.588Z,1.40
2022-09-23T08:18:39.591Z,1.30
2022-09-23T08:19:39.605Z,1.30
2022-09-23T08:20:42.551Z,1.40
2022-09-23T08:21:40.967Z,1.50
2022-09-23T08:22:39.541Z,1.50
2022-09-23T08:23:39.517Z,1.30
2022-09-23T08:24:39.517Z,1.60
2022-09-23T08:25:39.495Z,1.60
2022-09-23T08:26:39.820Z,1.40
2022-09-23T08:27:39.467Z,1.30
2022-09-23T08:28:39.456Z,1.10
2022-09-23T08:29:39.437Z,1.50
2022-09-23T08:30:39.454Z,1.50
2022-09-23T08:31:39.859Z,1.60
2022-09-23T08:32:39.405Z,1.50
2022-09-23T08:33:39.390Z,1.50
2022-09-23T08:34:39.398Z,1.20
2022-09-23T08:35:39.357Z,1.60
2022-09-23T08:36:39.767Z,1.70
2022-09-23T08:37:39.348Z,1.50
2022-09-23T08:38:39.332Z,1.30
2022-09-23T08:39:39.402Z,1.60
2022-09-23T08:40:39.363Z,1.40
2022-09-23T08:41:39.715Z,1.60
2022-09-23T08:42:39.275Z,1.40
2022-09-23T08:43:39.255Z,1.50
2022-09-23T08:44:39.245Z,1.40
2022-09-23T08:45:43.394Z,1.50
2022-09-23T08:46:39.534Z,1.40
2022-09-23T08:47:39.223Z,1.50
2022-09-23T08:48:40.806Z,1.60
2022-09-23T08:49:39.174Z,1.50
2022-09-23T08:50:39.163Z,1.40
2022-09-23T08:51:39.604Z,1.00
2022-09-23T08:52:39.154Z,1.40
2022-09-23T08:53:39.174Z,1.40
2022-09-23T08:54:39.374Z,1.40
2022-09-23T08:55:39.111Z,1.60
2022-09-23T08:56:39.532Z,1.30
2022-09-23T08:57:39.094Z,1.40
2022-09-23T08:58:39.061Z,1.50
2022-09-23T08:59:39.051Z,1.50
2022-09-23T09:00:39.032Z,1.60
2022-09-23T09:01:39.665Z,1.40
2022-09-23T09:02:39.163Z,1.70
2022-09-23T09:03:39.019Z,1.40
2022-09-23T09:04:39.082Z,1.30
2022-09-23T09:05:38.962Z,1.40
2022-09-23T09:06:52.393Z,1.20
2022-09-23T09:07:39.972Z,1.40
2022-09-23T09:08:38.942Z,1.60
2022-09-23T09:09:38.974Z,1.40
2022-09-23T09:10:38.946Z,1.40
2022-09-23T09:11:39.472Z,1.30
2022-09-23T09:12:39.211Z,1.60
2022-09-23T09:13:39.031Z,1.30
2022-09-23T09:14:38.842Z,1.70
2022-09-23T09:15:38.884Z,1.50
2022-09-23T09:16:58.379Z,1.60
2022-09-23T09:17:39.803Z,1.50
2022-09-23T09:18:38.801Z,1.30
2022-09-23T09:19:38.980Z,1.60
2022-09-23T09:20:38.770Z,1.30
2022-09-23T09:21:38.790Z,1.60
2022-09-23T09:22:39.118Z,1.70
2022-09-23T09:23:38.720Z,1.50
2022-09-23T09:24:38.728Z,1.50
2022-09-23T09:25:38.719Z,1.70
2022-09-23T09:26:38.709Z,1.40
2022-09-23T09:27:38.710Z,1.50
2022-09-23T09:28:38.999Z,1.70
2022-09-23T09:29:38.981Z,1.80
2022-09-23T09:30:38.673Z,1.40
2022-09-23T09:31:39.035Z,1.50
2022-09-23T09:32:40.386Z,1.40
2022-09-23T09:33:38.599Z,1.30
2022-09-23T09:34:38.659Z,1.60
2022-09-23T09:35:38.609Z,1.60
2022-09-23T09:36:38.562Z,1.50
2022-09-23T09:37:39.126Z,1.30
2022-09-23T09:38:38.839Z,1.60
2022-09-23T09:39:38.518Z,1.60
2022-09-23T09:40:38.801Z,1.50
2022-09-23T09:41:38.487Z,1.60
2022-09-23T09:42:39.010Z,1.50
2022-09-23T09:43:43.373Z,1.70
2022-09-23T09:44:39.459Z,1.70
2022-09-23T09:45:38.551Z,1.50
2022-09-23T09:46:38.515Z,1.70
2022-09-23T09:47:38.817Z,1.80
2022-09-23T09:48:38.409Z,1.60
2022-09-23T09:49:40.665Z,1.70
2022-09-23T09:50:38.468Z,1.50
2022-09-23T09:51:38.613Z,1.70
2022-09-23T09:52:39.554Z,1.90
2022-09-23T09:53:38.678Z,1.80
2022-09-23T09:54:38.274Z,1.50
2022-09-23T09:55:38.360Z,1.70
2022-09-23T09:56:38.816Z,1.50
2022-09-23T09:57:38.532Z,1.50
2022-09-23T09:58:38.546Z,1.70
2022-09-23T09:59:38.213Z,2.00
2022-09-23T10:00:38.184Z,1.80
2022-09-23T10:01:38.261Z,1.80
2022-09-23T10:02:38.592Z,1.80
2022-09-23T10:03:38.155Z,1.70
2022-09-23T10:04:38.176Z,1.80
2022-09-23T10:05:38.118Z,1.50
2022-09-23T10:06:38.099Z,1.70
2022-09-23T10:07:38.389Z,1.50
2022-09-23T10:08:38.087Z,2.00
2022-09-23T10:09:38.069Z,1.40
2022-09-23T10:10:38.050Z,1.50
2022-09-23T10:11:38.036Z,1.40
2022-09-23T10:12:38.028Z,1.60
2022-09-23T10:13:38.318Z,1.50
2022-09-23T10:14:38.005Z,1.70
2022-09-23T10:15:42.418Z,1.60
2022-09-23T10:16:39.024Z,1.70
2022-09-23T10:17:37.959Z,1.50
2022-09-23T10:18:38.344Z,1.60
2022-09-23T10:19:37.928Z,1.70
2022-09-23T10:20:37.915Z,1.40
2022-09-23T10:21:37.913Z,1.40
2022-09-23T10:22:38.427Z,1.60
2022-09-23T10:23:37.884Z,1.50
2022-09-23T10:24:37.864Z,1.60
2022-09-23T10:25:37.852Z,1.40
2022-09-23T10:26:37.844Z,1.70
2022-09-23T10:27:37.833Z,1.50
2022-09-23T10:28:38.206Z,1.80
2022-09-23T10:29:37.840Z,1.70
2022-09-23T10:30:37.888Z,1.70
2022-09-23T10:31:37.775Z,1.60
2022-09-23T10:32:37.774Z,1.70
2022-09-23T10:33:38.167Z,1.70
2022-09-23T10:34:37.734Z,1.60
2022-09-23T10:35:37.762Z,1.60
2022-09-23T10:36:42.381Z,1.70
2022-09-23T10:37:38.707Z,1.30
2022-09-23T10:38:37.988Z,1.50
2022-09-23T10:39:37.666Z,1.50
2022-09-23T10:40:37.724Z,1.50
2022-09-23T10:41:37.651Z,1.60
2022-09-23T10:42:37.642Z,1.40
2022-09-23T10:43:38.055Z,1.50
2022-09-23T10:44:37.626Z,1.50
2022-09-23T10:45:39.824Z,1.60
2022-09-23T10:46:38.685Z,1.70
2022-09-23T10:47:37.568Z,1.30
2022-09-23T10:48:37.984Z,1.90
2022-09-23T10:49:37.541Z,1.60
2022-09-23T10:50:37.539Z,1.80
2022-09-23T10:51:37.512Z,1.70
2022-09-23T10:52:37.508Z,1.80
2022-09-23T10:53:37.826Z,1.50
2022-09-23T10:54:37.482Z,1.40
2022-09-23T10:55:37.464Z,1.70
2022-09-23T10:56:37.455Z,1.60
2022-09-23T10:57:37.443Z,1.50
2022-09-23T10:58:37.783Z,1.70
2022-09-23T10:59:37.425Z,1.60
2022-09-23T11:00:37.406Z,1.60
2022-09-23T11:01:37.435Z,1.30
2022-09-23T11:02:37.376Z,1.30
2022-09-23T11:03:37.676Z,1.40
2022-09-23T11:04:37.433Z,1.30
2022-09-23T11:05:37.345Z,1.40
2022-09-23T11:06:37.337Z,1.20
2022-09-23T11:07:37.497Z,1.40
2022-09-23T11:08:37.554Z,1.20
2022-09-23T11:09:37.297Z,1.20
2022-09-23T11:10:46.261Z,1.30
2022-09-23T11:11:38.266Z,1.50
2022-09-23T11:12:37.256Z,1.70
2022-09-23T11:13:37.301Z,1.30
2022-09-23T11:14:37.236Z,1.20
2022-09-23T11:15:37.215Z,1.40
2022-09-23T11:16:37.275Z,1.30
2022-09-23T11:17:37.207Z,1.40
2022-09-23T11:18:37.574Z,1.30
2022-09-23T11:19:39.332Z,1.50
2022-09-23T11:20:37.249Z,1.20
2022-09-23T11:21:37.134Z,1.30
2022-09-23T11:22:37.140Z,1.50
2022-09-23T11:23:37.102Z,1.40
2022-09-23T11:24:37.412Z,1.30
2022-09-23T11:25:37.084Z,1.60
2022-09-23T11:26:37.282Z,1.50
2022-09-23T11:27:37.071Z,1.40
2022-09-23T11:28:37.523Z,1.30
2022-09-23T11:29:37.050Z,1.30
2022-09-23T11:30:37.061Z,1.20
2022-09-23T11:31:37.024Z,1.00
2022-09-23T11:32:36.992Z,1.40
2022-09-23T11:33:37.134Z,1.10
2022-09-23T11:34:37.404Z,1.50
2022-09-23T11:35:36.952Z,1.50
2022-09-23T11:36:36.955Z,1.50
2022-09-23T11:37:36.934Z,1.20
2022-09-23T11:38:36.921Z,1.20
2022-09-23T11:39:37.409Z,1.20
2022-09-23T11:40:39.849Z,1.10
2022-09-23T11:41:37.890Z,1.30
2022-09-23T11:42:37.320Z,1.30
2022-09-23T11:43:36.854Z,1.20
2022-09-23T11:44:36.865Z,1.20
2022-09-23T11:45:36.865Z,1.60
2022-09-23T11:46:36.811Z,1.40
2022-09-23T11:47:39.751Z,1.40
2022-09-23T11:48:36.783Z,1.30
2022-09-23T11:49:37.223Z,1.10
2022-09-23T11:50:36.764Z,1.20
2022-09-23T11:51:36.757Z,1.30
2022-09-23T11:52:36.736Z,1.20
2022-09-23T11:53:36.855Z,1.10
2022-09-23T11:54:36.854Z,1.10
2022-09-23T11:55:37.037Z,0.90
2022-09-23T11:56:37.606Z,1.00
2022-09-23T11:57:45.542Z,1.00
2022-09-23T11:58:37.686Z,1.00
2022-09-23T11:59:39.939Z,0.90
2022-09-23T12:00:36.635Z,0.80
2022-09-23T12:01:37.837Z,0.90
2022-09-23T12:02:36.692Z,0.90
2022-09-23T12:03:42.985Z,1.00
2022-09-23T12:04:43.886Z,1.00
2022-09-23T12:05:37.730Z,1.10
2022-09-23T12:06:36.602Z,0.90
2022-09-23T12:07:36.539Z,1.30
2022-09-23T12:08:36.536Z,1.20
2022-09-23T12:09:57.305Z,1.10
2022-09-23T12:10:38.018Z,0.90
2022-09-23T12:11:36.493Z,0.80
2022-09-23T12:12:36.478Z,0.90
2022-09-23T12:13:36.457Z,1.00
2022-09-23T12:14:36.467Z,1.10
2022-09-23T12:15:36.877Z,1.00
2022-09-23T12:16:36.478Z,1.00
2022-09-23T12:17:36.408Z,0.90
2022-09-23T12:18:36.404Z,1.10
2022-09-23T12:19:36.388Z,1.10
2022-09-23T12:20:36.413Z,1.30
2022-09-23T12:21:50.257Z,1.10
2022-09-23T12:22:37.345Z,0.90
2022-09-23T12:23:36.366Z,0.80
2022-09-23T12:24:36.347Z,1.00
2022-09-23T12:25:36.646Z,0.90
2022-09-23T12:26:36.328Z,0.90
2022-09-23T12:27:36.276Z,0.90
2022-09-23T12:28:36.315Z,1.10
2022-09-23T12:29:36.264Z,1.00
2022-09-23T12:30:36.324Z,1.00
2022-09-23T12:31:39.740Z,1.20
2022-09-23T12:32:37.215Z,1.00
2022-09-23T12:33:36.206Z,1.10
2022-09-23T12:34:36.277Z,1.10
2022-09-23T12:35:36.179Z,0.90
2022-09-23T12:36:36.170Z,1.10
2022-09-23T12:37:36.166Z,0.80
2022-09-23T12:38:37.601Z,1.20
2022-09-23T12:39:36.163Z,1.00
2022-09-23T12:40:40.059Z,1.00
2022-09-23T12:41:38.284Z,1.20
2022-09-23T12:42:36.079Z,1.20
2022-09-23T12:43:36.069Z,1.10
2022-09-23T12:44:36.079Z,1.00
2022-09-23T12:45:36.437Z,1.10
2022-09-23T12:46:36.035Z,1.10
2022-09-23T12:47:36.019Z,0.90
2022-09-23T12:48:36.008Z,0.80
2022-09-23T12:49:36.000Z,1.00
2022-09-23T12:50:36.012Z,1.00
2022-09-23T12:51:35.965Z,0.90
2022-09-23T12:52:35.957Z,0.90
2022-09-23T12:53:35.951Z,0.90
2022-09-23T12:54:35.943Z,0.80
2022-09-23T12:55:35.939Z,0.90
2022-09-23T12:56:35.928Z,1.00
2022-09-23T12:57:35.900Z,0.80
2022-09-23T12:58:35.891Z,0.80
2022-09-23T12:59:35.869Z,0.70
2022-09-23T13:00:36.199Z,0.90
2022-09-23T13:01:35.953Z,0.80
2022-09-23T13:02:42.837Z,0.90
2022-09-23T13:03:35.832Z,1.00
2022-09-23T13:04:35.810Z,1.10
2022-09-23T13:05:35.818Z,1.00
2022-09-23T13:06:35.808Z,0.80
2022-09-23T13:07:35.761Z,0.90
2022-09-23T13:08:35.752Z,0.90
2022-09-23T13:09:35.752Z,1.00
2022-09-23T13:10:35.756Z,1.00
2022-09-23T13:11:35.720Z,0.90
2022-09-23T13:12:35.708Z,1.00
2022-09-23T13:13:35.709Z,1.00
2022-09-23T13:14:35.798Z,1.00
2022-09-23T13:15:35.980Z,1.10
2022-09-23T13:16:35.787Z,0.90
2022-09-23T13:17:35.640Z,1.00
2022-09-23T13:18:35.630Z,0.90